Meath Environmental Platform

Observations for Trim Patrick St

Time AQI Temp °C Hum % Pres Pa CO μg/m³ H₂S μg/m³ NO μg/m³ NO₂ μg/m³ O₃ μg/m³ SO₂ μg/m³ PM1 μg/m³ PM2.5 μg/m³ PM10 μg/m³
Wednesday 5 August 2026
11:19 2 20.9 53 73,986 0.01 0 2.94 5.65 60.75 2.13 2 7.71 8.48
11:18 2 20.9 54 74,041 0.01 0 2.86 5.23 57.65 2.58 2 6.15 6.76
11:15 2 20.8 54 74,057 0.01 0 2.77 8.74 64.07 2.02 2 6.16 6.78
11:14 2 20.7 54 74,062 0 0 2.7 6.85 61.84 1.59 2.86 6.92 7.61
11:13 2 20.7 55 74,076 0 0 2.95 7.02 62.53 2.92 2 6.09 6.69
11:12 2 20.5 55 74,090 0 0 3.18 6.92 62.74 1.86 2 7.58 8.33
11:11 2 20.4 55 74,094 0 0 3.09 7.17 64.85 1.78 2 6.09 6.69
11:09 2 20.2 55 74,092 0 0 3.01 6.2 62.17 1.3 2 6.08 6.69
11:07 2 20.2 56 74,100 0 0 2.96 6.54 62.77 1.58 2 6.01 6.61
11:06 2 20.1 56 74,096 0 0 2.84 7.58 61.95 1.33 2 7.52 8.28
11:05 2 20.1 57 74,082 0 0 2.89 7.25 64.13 1.99 2 6 6.6
11:04 2 20.1 56 74,070 0 0 3.07 7.16 66.21 1.78 2.86 7.52 8.28
11:02 2 20.1 55 74,047 0 0 2.69 6.12 65.48 2.03 2 6.08 6.69
11:01 2 20.1 55 74,035 0 0 2.91 4.74 63.61 1.37 2.86 7.6 8.36
11:00 2 20.2 54 74,031 0 0 2.94 2.64 59.56 1.33 2 6.14 6.76
10:59 2 20.2 55 74,031 0 0 3.03 5.58 61.47 1.49 2 6.12 6.74
10:58 2 20.3 54 74,029 0 0 3.19 3.81 60.36 1.31 2 6.14 6.75
10:57 2 20.3 55 74,029 0.01 0 3.05 6.14 55.03 2.11 2 6.12 6.74
10:56 2 20.3 55 74,027 0.01 0 3.12 7.01 58.63 2.54 2 6.88 7.56
10:55 2 20.4 55 74,027 0 0 3.1 5.53 61.72 1.99 2.86 7.62 8.39